sensor_id;sensor_type;location;lat;lon;timestamp;pressure;altitude;pressure_sealevel;temperature;humidity
7407;BME280;3745;56.964;24.128;2022-08-07T00:01:50;101920.63;;;14.99;100.00
7407;BME280;3745;56.964;24.128;2022-08-07T00:04:16;101921.38;;;14.89;100.00
7407;BME280;3745;56.964;24.128;2022-08-07T00:06:41;101926.41;;;14.87;100.00
7407;BME280;3745;56.964;24.128;2022-08-07T00:09:07;101935.72;;;14.84;100.00
7407;BME280;3745;56.964;24.128;2022-08-07T00:11:33;101934.00;;;14.83;100.00
7407;BME280;3745;56.964;24.128;2022-08-07T00:13:58;101917.03;;;14.85;100.00
7407;BME280;3745;56.964;24.128;2022-08-07T00:16:24;101911.94;;;14.85;100.00
7407;BME280;3745;56.964;24.128;2022-08-07T00:18:50;101944.31;;;14.90;100.00
7407;BME280;3745;56.964;24.128;2022-08-07T00:21:15;101939.03;;;14.80;100.00
7407;BME280;3745;56.964;24.128;2022-08-07T00:23:41;101940.81;;;14.84;100.00
7407;BME280;3745;56.964;24.128;2022-08-07T00:26:08;101939.09;;;14.83;100.00
7407;BME280;3745;56.964;24.128;2022-08-07T00:28:34;101942.63;;;14.91;100.00
7407;BME280;3745;56.964;24.128;2022-08-07T00:31:06;101941.75;;;14.89;100.00
7407;BME280;3745;56.964;24.128;2022-08-07T00:33:36;101945.81;;;14.78;100.00
7407;BME280;3745;56.964;24.128;2022-08-07T00:36:03;101948.47;;;14.84;100.00
7407;BME280;3745;56.964;24.128;2022-08-07T00:38:30;101897.00;;;14.52;100.00
7407;BME280;3745;56.964;24.128;2022-08-07T00:40:56;101945.72;;;14.70;100.00
7407;BME280;3745;56.964;24.128;2022-08-07T00:43:22;101897.59;;;14.34;100.00
7407;BME280;3745;56.964;24.128;2022-08-07T00:45:48;101911.44;;;14.48;100.00
7407;BME280;3745;56.964;24.128;2022-08-07T00:48:13;101950.78;;;14.69;100.00
7407;BME280;3745;56.964;24.128;2022-08-07T00:50:39;101957.56;;;14.67;100.00
7407;BME280;3745;56.964;24.128;2022-08-07T00:53:05;101950.81;;;14.72;100.00
7407;BME280;3745;56.964;24.128;2022-08-07T00:55:31;101952.59;;;14.76;100.00
7407;BME280;3745;56.964;24.128;2022-08-07T00:57:57;101955.97;;;14.75;100.00
7407;BME280;3745;56.964;24.128;2022-08-07T01:00:23;101959.16;;;14.61;100.00
7407;BME280;3745;56.964;24.128;2022-08-07T01:02:49;101960.69;;;14.52;100.00
7407;BME280;3745;56.964;24.128;2022-08-07T01:05:15;101931.72;;;14.42;100.00
7407;BME280;3745;56.964;24.128;2022-08-07T01:07:41;101950.50;;;14.50;100.00
7407;BME280;3745;56.964;24.128;2022-08-07T01:10:08;101948.72;;;14.46;100.00
7407;BME280;3745;56.964;24.128;2022-08-07T01:12:36;101937.59;;;14.40;100.00
7407;BME280;3745;56.964;24.128;2022-08-07T01:15:03;101964.06;;;14.49;100.00
7407;BME280;3745;56.964;24.128;2022-08-07T01:17:31;101900.59;;;14.12;100.00
7407;BME280;3745;56.964;24.128;2022-08-07T01:20:01;101965.78;;;14.50;100.00
7407;BME280;3745;56.964;24.128;2022-08-07T01:22:27;101961.56;;;14.51;100.00
7407;BME280;3745;56.964;24.128;2022-08-07T01:24:54;101954.78;;;14.51;100.00
7407;BME280;3745;56.964;24.128;2022-08-07T01:27:19;101950.34;;;14.41;100.00
7407;BME280;3745;56.964;24.128;2022-08-07T01:29:45;101879.09;;;13.95;100.00
7407;BME280;3745;56.964;24.128;2022-08-07T01:32:11;101963.97;;;14.43;100.00
7407;BME280;3745;56.964;24.128;2022-08-07T01:34:36;101958.91;;;14.46;100.00
7407;BME280;3745;56.964;24.128;2022-08-07T01:37:02;101950.13;;;14.29;100.00
7407;BME280;3745;56.964;24.128;2022-08-07T01:39:28;101962.13;;;14.33;100.00
7407;BME280;3745;56.964;24.128;2022-08-07T01:41:54;101965.47;;;14.32;100.00
7407;BME280;3745;56.964;24.128;2022-08-07T01:44:20;101954.31;;;14.26;100.00
7407;BME280;3745;56.964;24.128;2022-08-07T01:46:46;101958.53;;;14.25;100.00
7407;BME280;3745;56.964;24.128;2022-08-07T01:49:12;101955.34;;;14.35;100.00
7407;BME280;3745;56.964;24.128;2022-08-07T01:51:39;101933.75;;;14.15;100.00
7407;BME280;3745;56.964;24.128;2022-08-07T01:54:08;101950.13;;;14.29;100.00
7407;BME280;3745;56.964;24.128;2022-08-07T01:59:14;101953.41;;;14.22;100.00
7407;BME280;3745;56.964;24.128;2022-08-07T02:01:49;101907.00;;;13.89;100.00
7407;BME280;3745;56.964;24.128;2022-08-07T02:07:03;101961.03;;;14.22;100.00
7407;BME280;3745;56.964;24.128;2022-08-07T02:09:31;101965.19;;;14.17;100.00
7407;BME280;3745;56.964;24.128;2022-08-07T02:11:58;101960.94;;;14.16;100.00
7407;BME280;3745;56.964;24.128;2022-08-07T02:14:43;101951.41;;;14.04;100.00
7407;BME280;3745;56.964;24.128;2022-08-07T02:17:12;101965.06;;;14.09;100.00
7407;BME280;3745;56.964;24.128;2022-08-07T02:19:42;101964.22;;;14.10;100.00
7407;BME280;3745;56.964;24.128;2022-08-07T02:22:10;101968.56;;;14.15;100.00
7407;BME280;3745;56.964;24.128;2022-08-07T02:24:38;101960.78;;;14.07;100.00
7407;BME280;3745;56.964;24.128;2022-08-07T02:27:05;101964.94;;;14.02;100.00
7407;BME280;3745;56.964;24.128;2022-08-07T02:29:33;101955.56;;;13.99;100.00
7407;BME280;3745;56.964;24.128;2022-08-07T02:32:00;101863.69;;;13.39;100.00
7407;BME280;3745;56.964;24.128;2022-08-07T02:34:27;101969.09;;;13.98;100.00
7407;BME280;3745;56.964;24.128;2022-08-07T02:36:56;101963.00;;;13.89;100.00
7407;BME280;3745;56.964;24.128;2022-08-07T02:39:23;101971.44;;;13.86;100.00
7407;BME280;3745;56.964;24.128;2022-08-07T02:41:50;101969.75;;;13.87;100.00
7407;BME280;3745;56.964;24.128;2022-08-07T02:44:16;101941.53;;;13.75;100.00
7407;BME280;3745;56.964;24.128;2022-08-07T02:46:43;101974.84;;;13.87;100.00
7407;BME280;3745;56.964;24.128;2022-08-07T02:49:09;101943.09;;;13.70;100.00
7407;BME280;3745;56.964;24.128;2022-08-07T02:51:35;101968.13;;;13.92;100.00
7407;BME280;3745;56.964;24.128;2022-08-07T02:54:02;101950.00;;;13.75;100.00
7407;BME280;3745;56.964;24.128;2022-08-07T02:56:31;101975.75;;;13.90;100.00
7407;BME280;3745;56.964;24.128;2022-08-07T02:59:01;101979.13;;;13.89;100.00
7407;BME280;3745;56.964;24.128;2022-08-07T03:01:29;101990.03;;;13.84;100.00
7407;BME280;3745;56.964;24.128;2022-08-07T03:03:56;101983.28;;;13.86;100.00
7407;BME280;3745;56.964;24.128;2022-08-07T03:06:23;101988.25;;;13.80;100.00
7407;BME280;3745;56.964;24.128;2022-08-07T03:08:50;101985.94;;;13.92;100.00
7407;BME280;3745;56.964;24.128;2022-08-07T03:11:16;101905.97;;;13.34;100.00
7407;BME280;3745;56.964;24.128;2022-08-07T03:13:43;101987.69;;;13.94;100.00
7407;BME280;3745;56.964;24.128;2022-08-07T03:16:08;101929.28;;;13.57;100.00
7407;BME280;3745;56.964;24.128;2022-08-07T03:18:34;101990.34;;;13.99;100.00
7407;BME280;3745;56.964;24.128;2022-08-07T03:21:01;101986.00;;;13.93;100.00
7407;BME280;3745;56.964;24.128;2022-08-07T03:23:26;101990.28;;;13.96;100.00
7407;BME280;3745;56.964;24.128;2022-08-07T03:25:55;101984.28;;;13.94;100.00
7407;BME280;3745;56.964;24.128;2022-08-07T03:28:22;101938.75;;;13.63;100.00
7407;BME280;3745;56.964;24.128;2022-08-07T03:30:50;102005.25;;;13.81;100.00
7407;BME280;3745;56.964;24.128;2022-08-07T03:33:36;102002.78;;;13.84;100.00
7407;BME280;3745;56.964;24.128;2022-08-07T03:36:02;101972.81;;;13.71;100.00
7407;BME280;3745;56.964;24.128;2022-08-07T03:38:29;101918.06;;;13.47;100.00
7407;BME280;3745;56.964;24.128;2022-08-07T03:40:56;101992.84;;;13.97;100.00
7407;BME280;3745;56.964;24.128;2022-08-07T03:43:22;102011.75;;;14.10;100.00
7407;BME280;3745;56.964;24.128;2022-08-07T03:45:47;102011.78;;;14.13;100.00
7407;BME280;3745;56.964;24.128;2022-08-07T03:48:13;102010.97;;;14.14;100.00
7407;BME280;3745;56.964;24.128;2022-08-07T03:50:39;102017.47;;;14.00;100.00
7407;BME280;3745;56.964;24.128;2022-08-07T03:53:05;102029.22;;;13.92;100.00
7407;BME280;3745;56.964;24.128;2022-08-07T03:55:31;102014.75;;;13.91;100.00
7407;BME280;3745;56.964;24.128;2022-08-07T03:57:58;102005.50;;;13.93;100.00
7407;BME280;3745;56.964;24.128;2022-08-07T04:00:25;102021.16;;;14.14;100.00
7407;BME280;3745;56.964;24.128;2022-08-07T04:02:53;102004.88;;;14.06;100.00
7407;BME280;3745;56.964;24.128;2022-08-07T04:05:19;102019.31;;;14.07;100.00
7407;BME280;3745;56.964;24.128;2022-08-07T04:07:46;102030.25;;;14.03;100.00
7407;BME280;3745;56.964;24.128;2022-08-07T04:10:11;102026.25;;;14.14;100.00
7407;BME280;3745;56.964;24.128;2022-08-07T04:12:38;102004.81;;;14.01;100.00
7407;BME280;3745;56.964;24.128;2022-08-07T04:15:04;101962.81;;;13.80;100.00
7407;BME280;3745;56.964;24.128;2022-08-07T04:17:31;102021.22;;;14.19;100.00
7407;BME280;3745;56.964;24.128;2022-08-07T04:19:57;102027.25;;;14.22;100.00
7407;BME280;3745;56.964;24.128;2022-08-07T04:22:24;102011.13;;;14.23;100.00
7407;BME280;3745;56.964;24.128;2022-08-07T04:24:50;102039.09;;;14.22;100.00
7407;BME280;3745;56.964;24.128;2022-08-07T04:27:16;101982.72;;;14.00;100.00
7407;BME280;3745;56.964;24.128;2022-08-07T04:29:44;102008.59;;;14.23;100.00
7407;BME280;3745;56.964;24.128;2022-08-07T04:32:10;101995.97;;;14.29;100.00
7407;BME280;3745;56.964;24.128;2022-08-07T04:34:37;102020.81;;;14.39;100.00
7407;BME280;3745;56.964;24.128;2022-08-07T04:37:04;102026.00;;;14.45;100.00
7407;BME280;3745;56.964;24.128;2022-08-07T04:39:30;102026.22;;;14.57;100.00
7407;BME280;3745;56.964;24.128;2022-08-07T04:41:55;102028.72;;;14.54;100.00
7407;BME280;3745;56.964;24.128;2022-08-07T04:44:21;101987.47;;;14.27;100.00
7407;BME280;3745;56.964;24.128;2022-08-07T04:47:08;102035.69;;;14.68;100.00
7407;BME280;3745;56.964;24.128;2022-08-07T04:49:51;101999.81;;;14.55;100.00
7407;BME280;3745;56.964;24.128;2022-08-07T04:52:40;101983.00;;;14.63;100.00
7407;BME280;3745;56.964;24.128;2022-08-07T04:57:48;102024.34;;;15.00;100.00
7407;BME280;3745;56.964;24.128;2022-08-07T05:00:24;102002.22;;;14.99;100.00
7407;BME280;3745;56.964;24.128;2022-08-07T05:05:48;102019.63;;;15.27;100.00
7407;BME280;3745;56.964;24.128;2022-08-07T05:08:21;102024.72;;;15.27;100.00
7407;BME280;3745;56.964;24.128;2022-08-07T05:10:57;102000.00;;;15.22;100.00
7407;BME280;3745;56.964;24.128;2022-08-07T05:13:30;102016.59;;;15.52;100.00
7407;BME280;3745;56.964;24.128;2022-08-07T05:16:03;102023.50;;;15.59;100.00
7407;BME280;3745;56.964;24.128;2022-08-07T05:18:34;102000.59;;;15.67;100.00
7407;BME280;3745;56.964;24.128;2022-08-07T05:21:07;101995.53;;;15.68;100.00
7407;BME280;3745;56.964;24.128;2022-08-07T05:23:46;102023.75;;;15.81;100.00
7407;BME280;3745;56.964;24.128;2022-08-07T05:26:18;102013.75;;;15.99;100.00
7407;BME280;3745;56.964;24.128;2022-08-07T05:28:45;102018.91;;;16.05;100.00
7407;BME280;3745;56.964;24.128;2022-08-07T05:31:14;102022.34;;;16.08;100.00
7407;BME280;3745;56.964;24.128;2022-08-07T05:33:42;101973.75;;;15.99;100.00
7407;BME280;3745;56.964;24.128;2022-08-07T05:36:09;101978.91;;;16.05;100.00
7407;BME280;3745;56.964;24.128;2022-08-07T05:38:35;102018.28;;;16.28;100.00
7407;BME280;3745;56.964;24.128;2022-08-07T05:41:02;101983.19;;;16.08;100.00
7407;BME280;3745;56.964;24.128;2022-08-07T05:43:28;102026.25;;;16.57;100.00
7407;BME280;3745;56.964;24.128;2022-08-07T05:45:55;102032.28;;;16.64;100.00
7407;BME280;3745;56.964;24.128;2022-08-07T05:48:21;102016.13;;;16.69;100.00
7407;BME280;3745;56.964;24.128;2022-08-07T05:50:48;102020.56;;;16.93;100.00
7407;BME280;3745;56.964;24.128;2022-08-07T05:53:14;102024.91;;;17.05;100.00
7407;BME280;3745;56.964;24.128;2022-08-07T05:55:40;102022.41;;;17.12;100.00
7407;BME280;3745;56.964;24.128;2022-08-07T05:58:06;102019.94;;;17.29;100.00
7407;BME280;3745;56.964;24.128;2022-08-07T06:00:36;102007.97;;;17.25;100.00
7407;BME280;3745;56.964;24.128;2022-08-07T06:03:04;101984.09;;;17.29;100.00
7407;BME280;3745;56.964;24.128;2022-08-07T06:05:32;102014.94;;;17.53;100.00
7407;BME280;3745;56.964;24.128;2022-08-07T06:07:59;102020.97;;;17.61;100.00
7407;BME280;3745;56.964;24.128;2022-08-07T06:10:26;102006.44;;;17.57;100.00
7407;BME280;3745;56.964;24.128;2022-08-07T06:12:52;102018.50;;;17.85;100.00
7407;BME280;3745;56.964;24.128;2022-08-07T06:15:19;102033.91;;;18.04;100.00
7407;BME280;3745;56.964;24.128;2022-08-07T06:17:45;101965.50;;;17.63;100.00
7407;BME280;3745;56.964;24.128;2022-08-07T06:20:11;102024.56;;;18.15;100.00
7407;BME280;3745;56.964;24.128;2022-08-07T06:22:39;101996.34;;;18.06;100.00
7407;BME280;3745;56.964;24.128;2022-08-07T06:25:07;102015.19;;;18.26;100.00
7407;BME280;3745;56.964;24.128;2022-08-07T06:27:33;102025.44;;;18.26;100.00
7407;BME280;3745;56.964;24.128;2022-08-07T06:29:59;102011.78;;;18.30;100.00
7407;BME280;3745;56.964;24.128;2022-08-07T06:32:25;102027.16;;;18.48;100.00
7407;BME280;3745;56.964;24.128;2022-08-07T06:34:50;102001.53;;;18.30;100.00
7407;BME280;3745;56.964;24.128;2022-08-07T06:37:16;102035.75;;;18.50;100.00
7407;BME280;3745;56.964;24.128;2022-08-07T06:39:42;102039.13;;;18.46;100.00
7407;BME280;3745;56.964;24.128;2022-08-07T06:42:12;102035.75;;;18.68;100.00
7407;BME280;3745;56.964;24.128;2022-08-07T06:44:41;102030.59;;;18.77;100.00
7407;BME280;3745;56.964;24.128;2022-08-07T06:47:07;102035.72;;;18.86;100.00
7407;BME280;3745;56.964;24.128;2022-08-07T06:49:33;102032.31;;;18.90;100.00
7407;BME280;3745;56.964;24.128;2022-08-07T06:52:00;102040.84;;;18.86;100.00
7407;BME280;3745;56.964;24.128;2022-08-07T06:54:27;102034.03;;;18.85;100.00
7407;BME280;3745;56.964;24.128;2022-08-07T06:56:54;102030.56;;;19.08;100.00
7407;BME280;3745;56.964;24.128;2022-08-07T06:59:28;102051.06;;;19.29;100.00
7407;BME280;3745;56.964;24.128;2022-08-07T07:01:56;101995.50;;;19.13;100.00
7407;BME280;3745;56.964;24.128;2022-08-07T07:04:24;102045.91;;;19.53;100.00
7407;BME280;3745;56.964;24.128;2022-08-07T07:06:50;102048.47;;;19.56;100.00
7407;BME280;3745;56.964;24.128;2022-08-07T07:09:24;102015.97;;;19.29;100.00
7407;BME280;3745;56.964;24.128;2022-08-07T07:14:52;102021.03;;;19.61;100.00
7407;BME280;3745;56.964;24.128;2022-08-07T07:20:12;102041.50;;;19.79;100.00
7407;BME280;3745;56.964;24.128;2022-08-07T07:22:40;102017.59;;;19.61;100.00
7407;BME280;3745;56.964;24.128;2022-08-07T07:25:09;102039.81;;;19.74;100.00
7407;BME280;3745;56.964;24.128;2022-08-07T07:27:41;102020.91;;;19.87;100.00
7407;BME280;3745;56.964;24.128;2022-08-07T07:30:10;102004.66;;;19.86;100.00
7407;BME280;3745;56.964;24.128;2022-08-07T07:32:38;101999.53;;;19.83;100.00
7407;BME280;3745;56.964;24.128;2022-08-07T07:35:07;101994.41;;;19.77;100.00
7407;BME280;3745;56.964;24.128;2022-08-07T07:37:35;102017.41;;;19.98;100.00
7407;BME280;3745;56.964;24.128;2022-08-07T07:40:04;102034.44;;;20.16;100.00
7407;BME280;3745;56.964;24.128;2022-08-07T07:42:32;102035.38;;;20.05;100.00
7407;BME280;3745;56.964;24.128;2022-08-07T07:45:00;102025.81;;;20.28;100.00
7407;BME280;3745;56.964;24.128;2022-08-07T07:47:27;102033.41;;;20.43;100.00
7407;BME280;3745;56.964;24.128;2022-08-07T07:49:53;102028.19;;;20.55;100.00
7407;BME280;3745;56.964;24.128;2022-08-07T07:52:22;102026.47;;;20.57;100.00
7407;BME280;3745;56.964;24.128;2022-08-07T07:54:49;102024.69;;;20.65;100.00
7407;BME280;3745;56.964;24.128;2022-08-07T07:57:18;102027.13;;;20.79;100.00
7407;BME280;3745;56.964;24.128;2022-08-07T07:59:47;102027.06;;;20.86;100.00
7407;BME280;3745;56.964;24.128;2022-08-07T08:02:14;102038.06;;;21.03;100.00
7407;BME280;3745;56.964;24.128;2022-08-07T08:04:43;102034.41;;;21.26;100.00
7407;BME280;3745;56.964;24.128;2022-08-07T08:07:10;101998.41;;;21.20;100.00
7407;BME280;3745;56.964;24.128;2022-08-07T08:09:37;102001.81;;;21.25;100.00
7407;BME280;3745;56.964;24.128;2022-08-07T08:12:04;102030.00;;;21.35;100.00
7407;BME280;3745;56.964;24.128;2022-08-07T08:14:31;102010.47;;;21.18;100.00
7407;BME280;3745;56.964;24.128;2022-08-07T08:17:00;102041.09;;;21.42;100.00
7407;BME280;3745;56.964;24.128;2022-08-07T08:19:27;102031.78;;;21.32;100.00
7407;BME280;3745;56.964;24.128;2022-08-07T08:21:55;102046.19;;;21.48;100.00
7407;BME280;3745;56.964;24.128;2022-08-07T08:24:42;102035.94;;;21.42;100.00
7407;BME280;3745;56.964;24.128;2022-08-07T08:27:32;102058.31;;;21.40;100.00
7407;BME280;3745;56.964;24.128;2022-08-07T08:30:08;102048.81;;;21.43;100.00
7407;BME280;3745;56.964;24.128;2022-08-07T08:32:42;102022.19;;;21.43;100.00
7407;BME280;3745;56.964;24.128;2022-08-07T08:35:12;102035.59;;;21.69;100.00
7407;BME280;3745;56.964;24.128;2022-08-07T08:37:43;102061.13;;;21.90;100.00
7407;BME280;3745;56.964;24.128;2022-08-07T08:40:14;102053.16;;;21.40;100.00
7407;BME280;3745;56.964;24.128;2022-08-07T08:42:53;102060.06;;;21.38;100.00
7407;BME280;3745;56.964;24.128;2022-08-07T08:45:37;102065.38;;;21.20;100.00
7407;BME280;3745;56.964;24.128;2022-08-07T08:48:21;102067.22;;;21.02;100.00
7407;BME280;3745;56.964;24.128;2022-08-07T08:50:57;102060.28;;;21.14;100.00
7407;BME280;3745;56.964;24.128;2022-08-07T08:53:32;102048.38;;;21.00;100.00
7407;BME280;3745;56.964;24.128;2022-08-07T08:56:22;102059.50;;;21.04;100.00
7407;BME280;3745;56.964;24.128;2022-08-07T09:07:29;102058.97;;;21.55;100.00
7407;BME280;3745;56.964;24.128;2022-08-07T09:10:09;102052.97;;;21.55;100.00
7407;BME280;3745;56.964;24.128;2022-08-07T09:18:21;102040.69;;;21.75;100.00
7407;BME280;3745;56.964;24.128;2022-08-07T09:21:05;102068.06;;;21.85;100.00
7407;BME280;3745;56.964;24.128;2022-08-07T09:26:38;102057.03;;;22.37;100.00
7407;BME280;3745;56.964;24.128;2022-08-07T09:29:19;102044.94;;;22.42;100.00
7407;BME280;3745;56.964;24.128;2022-08-07T09:39:57;102062.09;;;22.43;100.00
7407;BME280;3745;56.964;24.128;2022-08-07T09:42:40;102027.56;;;21.93;100.00
7407;BME280;3745;56.964;24.128;2022-08-07T09:54:20;102049.47;;;21.62;100.00
7407;BME280;3745;56.964;24.128;2022-08-07T09:57:30;102051.41;;;21.42;100.00
7407;BME280;3745;56.964;24.128;2022-08-07T10:02:47;102041.78;;;21.57;100.00
7407;BME280;3745;56.964;24.128;2022-08-07T10:06:00;102046.00;;;21.63;100.00
7407;BME280;3745;56.964;24.128;2022-08-07T10:17:08;102030.00;;;22.05;100.00
7407;BME280;3745;56.964;24.128;2022-08-07T10:25:27;101984.84;;;22.34;100.00
7407;BME280;3745;56.964;24.128;2022-08-07T10:33:56;102020.72;;;22.49;100.00
7407;BME280;3745;56.964;24.128;2022-08-07T10:42:31;102014.31;;;22.21;100.00
7407;BME280;3745;56.964;24.128;2022-08-07T10:45:08;102025.81;;;21.97;100.00
7407;BME280;3745;56.964;24.128;2022-08-07T10:50:09;102020.22;;;21.63;100.00
7407;BME280;3745;56.964;24.128;2022-08-07T10:53:15;101963.84;;;21.39;100.00
7407;BME280;3745;56.964;24.128;2022-08-07T10:55:50;102005.41;;;21.79;100.00
7407;BME280;3745;56.964;24.128;2022-08-07T10:59:00;101984.66;;;21.88;100.00
7407;BME280;3745;56.964;24.128;2022-08-07T11:01:44;102009.38;;;22.05;100.00
7407;BME280;3745;56.964;24.128;2022-08-07T11:04:54;102003.66;;;22.42;100.00
7407;BME280;3745;56.964;24.128;2022-08-07T11:07:42;101983.38;;;22.73;100.00
7407;BME280;3745;56.964;24.128;2022-08-07T11:10:20;101974.47;;;22.87;100.00
7407;BME280;3745;56.964;24.128;2022-08-07T11:12:58;101958.88;;;22.43;100.00
7407;BME280;3745;56.964;24.128;2022-08-07T11:15:31;102003.25;;;22.66;100.00
7407;BME280;3745;56.964;24.128;2022-08-07T11:18:29;101975.38;;;22.34;100.00
7407;BME280;3745;56.964;24.128;2022-08-07T11:21:06;102000.16;;;22.43;100.00
7407;BME280;3745;56.964;24.128;2022-08-07T11:24:03;101960.66;;;22.41;100.00
7407;BME280;3745;56.964;24.128;2022-08-07T11:26:40;101997.59;;;22.93;100.00
7407;BME280;3745;56.964;24.128;2022-08-07T11:32:14;101986.84;;;23.57;100.00
7407;BME280;3745;56.964;24.128;2022-08-07T11:34:49;101984.91;;;23.68;100.00
7407;BME280;3745;56.964;24.128;2022-08-07T11:40:24;101981.72;;;23.94;100.00
7407;BME280;3745;56.964;24.128;2022-08-07T11:46:07;101982.00;;;23.82;100.00
7407;BME280;3745;56.964;24.128;2022-08-07T12:05:29;101990.84;;;22.86;100.00
7407;BME280;3745;56.964;24.128;2022-08-07T12:08:08;101990.59;;;22.98;100.00
7407;BME280;3745;56.964;24.128;2022-08-07T12:10:48;101981.88;;;23.05;100.00
7407;BME280;3745;56.964;24.128;2022-08-07T12:13:30;101983.16;;;23.28;100.00
7407;BME280;3745;56.964;24.128;2022-08-07T12:16:02;101979.78;;;23.24;100.00
7407;BME280;3745;56.964;24.128;2022-08-07T12:19:16;101983.28;;;23.21;100.00
7407;BME280;3745;56.964;24.128;2022-08-07T12:26:52;101955.91;;;23.11;100.00
7407;BME280;3745;56.964;24.128;2022-08-07T12:32:05;101980.22;;;23.01;100.00
7407;BME280;3745;56.964;24.128;2022-08-07T12:34:37;101979.41;;;23.01;100.00
7407;BME280;3745;56.964;24.128;2022-08-07T12:37:04;101971.66;;;22.99;100.00
7407;BME280;3745;56.964;24.128;2022-08-07T12:39:33;101978.88;;;22.82;100.00
7407;BME280;3745;56.964;24.128;2022-08-07T12:42:00;101978.22;;;22.71;100.00
7407;BME280;3745;56.964;24.128;2022-08-07T12:44:27;101958.78;;;22.49;100.00
7407;BME280;3745;56.964;24.128;2022-08-07T12:49:51;101974.06;;;22.61;100.00
7407;BME280;3745;56.964;24.128;2022-08-07T12:55:35;101975.09;;;22.51;100.00
7407;BME280;3745;56.964;24.128;2022-08-07T12:58:04;101975.81;;;22.59;100.00
7407;BME280;3745;56.964;24.128;2022-08-07T13:00:53;101974.22;;;22.52;100.00
7407;BME280;3745;56.964;24.128;2022-08-07T13:14:50;101967.88;;;22.71;100.00
7407;BME280;3745;56.964;24.128;2022-08-07T13:17:43;101969.28;;;22.89;100.00
7407;BME280;3745;56.964;24.128;2022-08-07T13:23:16;101956.97;;;23.46;100.00
7407;BME280;3745;56.964;24.128;2022-08-07T13:25:54;101951.66;;;23.52;100.00
7407;BME280;3745;56.964;24.128;2022-08-07T13:28:38;101947.22;;;23.58;100.00
7407;BME280;3745;56.964;24.128;2022-08-07T13:31:23;101945.44;;;23.60;100.00
7407;BME280;3745;56.964;24.128;2022-08-07T13:33:57;101948.47;;;23.41;100.00
7407;BME280;3745;56.964;24.128;2022-08-07T13:36:43;101906.16;;;23.03;100.00
7407;BME280;3745;56.964;24.128;2022-08-07T13:41:50;101961.09;;;23.11;100.00
7407;BME280;3745;56.964;24.128;2022-08-07T13:44:22;101936.59;;;22.88;100.00
7407;BME280;3745;56.964;24.128;2022-08-07T13:46:51;101918.78;;;22.74;100.00
7407;BME280;3745;56.964;24.128;2022-08-07T13:49:21;101969.38;;;22.84;100.00
7407;BME280;3745;56.964;24.128;2022-08-07T13:51:50;101963.22;;;22.91;100.00
7407;BME280;3745;56.964;24.128;2022-08-07T13:54:20;101955.47;;;22.91;100.00
7407;BME280;3745;56.964;24.128;2022-08-07T13:56:48;101925.72;;;22.72;100.00
7407;BME280;3745;56.964;24.128;2022-08-07T13:59:20;101937.56;;;22.82;100.00
7407;BME280;3745;56.964;24.128;2022-08-07T14:01:55;101952.59;;;23.06;100.00
7407;BME280;3745;56.964;24.128;2022-08-07T14:04:29;101948.41;;;22.99;100.00
7407;BME280;3745;56.964;24.128;2022-08-07T14:06:57;101938.66;;;23.13;100.00
7407;BME280;3745;56.964;24.128;2022-08-07T14:09:27;101946.75;;;23.40;100.00
7407;BME280;3745;56.964;24.128;2022-08-07T14:11:56;101965.03;;;23.29;100.00
7407;BME280;3745;56.964;24.128;2022-08-07T14:14:32;101967.31;;;23.01;100.00
7407;BME280;3745;56.964;24.128;2022-08-07T14:17:04;101925.22;;;22.96;100.00
7407;BME280;3745;56.964;24.128;2022-08-07T14:19:35;101961.22;;;23.05;100.00
7407;BME280;3745;56.964;24.128;2022-08-07T14:22:05;101960.03;;;23.20;100.00
7407;BME280;3745;56.964;24.128;2022-08-07T14:24:37;101917.59;;;22.90;100.00
7407;BME280;3745;56.964;24.128;2022-08-07T14:27:06;101956.72;;;23.15;100.00
7407;BME280;3745;56.964;24.128;2022-08-07T14:29:36;101905.44;;;22.97;100.00
7407;BME280;3745;56.964;24.128;2022-08-07T14:32:05;101913.06;;;23.01;100.00
7407;BME280;3745;56.964;24.128;2022-08-07T14:34:33;101919.94;;;23.04;100.00
7407;BME280;3745;56.964;24.128;2022-08-07T14:37:02;101945.41;;;23.20;100.00
7407;BME280;3745;56.964;24.128;2022-08-07T14:39:36;101943.69;;;23.19;100.00
7407;BME280;3745;56.964;24.128;2022-08-07T14:42:03;101940.03;;;23.30;100.00
7407;BME280;3745;56.964;24.128;2022-08-07T14:44:31;101938.28;;;23.32;100.00
7407;BME280;3745;56.964;24.128;2022-08-07T14:46:58;101929.91;;;23.20;100.00
7407;BME280;3745;56.964;24.128;2022-08-07T14:49:29;101941.88;;;23.25;100.00
7407;BME280;3745;56.964;24.128;2022-08-07T14:51:57;101909.00;;;22.91;100.00
7407;BME280;3745;56.964;24.128;2022-08-07T14:54:28;101935.44;;;23.02;100.00
7407;BME280;3745;56.964;24.128;2022-08-07T14:56:56;101938.81;;;23.06;100.00
7407;BME280;3745;56.964;24.128;2022-08-07T14:59:23;101916.56;;;23.00;100.00
7407;BME280;3745;56.964;24.128;2022-08-07T15:01:53;101933.41;;;23.16;100.00
7407;BME280;3745;56.964;24.128;2022-08-07T15:04:21;101916.44;;;23.06;100.00
7407;BME280;3745;56.964;24.128;2022-08-07T15:06:48;101875.94;;;22.64;100.00
7407;BME280;3745;56.964;24.128;2022-08-07T15:09:15;101932.28;;;22.88;100.00
7407;BME280;3745;56.964;24.128;2022-08-07T15:11:55;101896.78;;;22.52;100.00
7407;BME280;3745;56.964;24.128;2022-08-07T15:14:25;101914.75;;;22.58;100.00
7407;BME280;3745;56.964;24.128;2022-08-07T15:17:00;101918.06;;;22.64;100.00
7407;BME280;3745;56.964;24.128;2022-08-07T15:19:34;101933.41;;;22.74;100.00
7407;BME280;3745;56.964;24.128;2022-08-07T15:22:02;101937.50;;;22.85;100.00
7407;BME280;3745;56.964;24.128;2022-08-07T15:24:33;101925.47;;;22.84;100.00
7407;BME280;3745;56.964;24.128;2022-08-07T15:27:21;101941.09;;;22.78;100.00
7407;BME280;3745;56.964;24.128;2022-08-07T15:29:51;101928.19;;;22.77;100.00